JAF69D EBBR-HEGN
Flight info
| Callsign | JAF69D |
|---|---|
| Flight time | N/A |
| Altitude | 36000 |
| Route | PITES M150 KRH DCT UTABA DCT BEMKI DCT ELMEM DCT DIRAB DCT VESAL DCT PEVAL DCT NAKIT DCT ZDA DCT SPL DCT VAKSU/N0456F350 DCT RODON DCT DIMIS DCT ELVAS DCT ASTOV DCT MONUV DCT SAMAZ DCT SALUN N705 MMA P751 DASUM Y234 FYM M872 HGD |
| Aircraft | B738/M-SDE2E3FGHIRWXY/LB1 |
Departure
| Time | N/A |
|---|---|
| Airport | Brussels Airport (EBBR) |
Arrival
| Time | 2026-04-28 14:45 |
|---|---|
| Airport | Hurghada International Airport (HEGN) |
| Time | Latitude | Longitude | Altitude | Speed | Heading |
|---|---|---|---|---|---|
| 2026-04-28 11:26 | 45.98964 | 12.29470 | 36084 ft | 486 kts | 138° |
| 2026-04-28 11:26 | 45.94172 | 12.36314 | 36083 ft | 486 kts | 138° |
| 2026-04-28 11:27 | 45.89376 | 12.43147 | 36077 ft | 486 kts | 139° |
| 2026-04-28 11:27 | 45.84548 | 12.50007 | 36076 ft | 486 kts | 138° |
| 2026-04-28 11:28 | 45.79754 | 12.56801 | 36073 ft | 486 kts | 138° |
| 2026-04-28 11:28 | 45.74954 | 12.63585 | 36070 ft | 486 kts | 138° |
| 2026-04-28 11:29 | 45.70148 | 12.70363 | 36062 ft | 486 kts | 138° |
| 2026-04-28 11:29 | 45.65311 | 12.77165 | 36068 ft | 486 kts | 139° |
| 2026-04-28 11:30 | 45.60517 | 12.83891 | 36059 ft | 486 kts | 138° |
| 2026-04-28 11:30 | 45.53259 | 12.94041 | 36069 ft | 486 kts | 139° |
| 2026-04-28 11:31 | 45.48409 | 13.00802 | 36069 ft | 487 kts | 138° |
| 2026-04-28 11:31 | 45.43572 | 13.07529 | 36068 ft | 487 kts | 138° |
| 2026-04-28 11:32 | 45.38724 | 13.14254 | 36057 ft | 487 kts | 138° |
| 2026-04-28 11:32 | 45.33887 | 13.20949 | 36065 ft | 487 kts | 138° |
| 2026-04-28 11:33 | 45.29136 | 13.27796 | 36062 ft | 488 kts | 134° |
| 2026-04-28 11:33 | 45.24709 | 13.35119 | 36063 ft | 489 kts | 132° |
| 2026-04-28 11:34 | 45.20308 | 13.42373 | 36064 ft | 488 kts | 133° |
| 2026-04-28 11:34 | 45.15935 | 13.49745 | 36051 ft | 489 kts | 130° |
| 2026-04-28 11:35 | 45.11743 | 13.57380 | 36061 ft | 488 kts | 129° |
| 2026-04-28 11:35 | 45.07599 | 13.64975 | 36071 ft | 488 kts | 129° |
| 2026-04-28 11:36 | 45.03432 | 13.72518 | 36069 ft | 488 kts | 130° |
| 2026-04-28 11:36 | 44.99255 | 13.80014 | 36073 ft | 488 kts | 130° |
| 2026-04-28 11:37 | 44.95047 | 13.87533 | 36082 ft | 488 kts | 130° |
| 2026-04-28 11:37 | 44.90835 | 13.95043 | 36061 ft | 487 kts | 130° |
| 2026-04-28 11:38 | 44.86636 | 14.02514 | 36069 ft | 487 kts | 130° |
| 2026-04-28 11:38 | 44.82437 | 14.09964 | 36069 ft | 486 kts | 130° |
| 2026-04-28 11:39 | 44.78227 | 14.17416 | 36063 ft | 486 kts | 130° |
| 2026-04-28 11:39 | 44.74014 | 14.24853 | 36067 ft | 486 kts | 130° |
| 2026-04-28 11:40 | 44.69798 | 14.32275 | 36069 ft | 486 kts | 130° |
| 2026-04-28 11:40 | 44.65581 | 14.39681 | 36059 ft | 486 kts | 130° |
| 2026-04-28 11:41 | 44.61359 | 14.47075 | 36071 ft | 486 kts | 130° |
| 2026-04-28 11:41 | 44.57133 | 14.54460 | 36068 ft | 486 kts | 130° |
| 2026-04-28 11:42 | 44.52906 | 14.61825 | 36074 ft | 486 kts | 130° |
| 2026-04-28 11:42 | 44.48668 | 14.69190 | 36071 ft | 486 kts | 130° |
| 2026-04-28 11:43 | 44.44405 | 14.76582 | 36072 ft | 487 kts | 130° |
| 2026-04-28 11:43 | 44.40161 | 14.83921 | 36055 ft | 487 kts | 130° |
| 2026-04-28 11:44 | 44.35887 | 14.91292 | 36064 ft | 486 kts | 130° |
| 2026-04-28 11:44 | 44.31630 | 14.98616 | 36069 ft | 486 kts | 130° |
| 2026-04-28 11:45 | 44.27373 | 15.05922 | 36078 ft | 486 kts | 131° |
| 2026-04-28 11:45 | 44.23113 | 15.13214 | 36073 ft | 486 kts | 131° |
| 2026-04-28 11:46 | 44.18820 | 15.20543 | 36076 ft | 487 kts | 131° |
| 2026-04-28 11:46 | 44.14551 | 15.27815 | 36065 ft | 486 kts | 131° |
| 2026-04-28 11:47 | 44.10271 | 15.35089 | 36074 ft | 486 kts | 131° |
| 2026-04-28 11:47 | 44.05921 | 15.42250 | 36078 ft | 486 kts | 133° |
| 2026-04-28 11:48 | 44.01454 | 15.49305 | 36075 ft | 486 kts | 133° |
| 2026-04-28 11:48 | 43.96988 | 15.56344 | 36075 ft | 486 kts | 133° |
| 2026-04-28 11:49 | 43.92539 | 15.63385 | 36072 ft | 486 kts | 133° |
| 2026-04-28 11:49 | 43.88093 | 15.70425 | 36064 ft | 486 kts | 133° |
| 2026-04-28 11:50 | 43.83642 | 15.77457 | 36069 ft | 485 kts | 133° |
| 2026-04-28 11:50 | 43.79212 | 15.84436 | 36067 ft | 485 kts | 133° |
| 2026-04-28 11:51 | 43.74744 | 15.91455 | 36066 ft | 486 kts | 133° |
| 2026-04-28 11:51 | 43.70278 | 15.98456 | 36066 ft | 485 kts | 133° |
| 2026-04-28 11:52 | 43.65801 | 16.05456 | 36072 ft | 486 kts | 133° |
| 2026-04-28 11:52 | 43.61314 | 16.12455 | 36068 ft | 486 kts | 133° |
| 2026-04-28 11:53 | 43.56843 | 16.19413 | 36075 ft | 486 kts | 133° |
| 2026-04-28 11:53 | 43.52332 | 16.26419 | 36070 ft | 486 kts | 133° |
| 2026-04-28 11:54 | 43.47871 | 16.33333 | 36078 ft | 486 kts | 133° |
| 2026-04-28 11:54 | 43.44127 | 16.39144 | 36075 ft | 487 kts | 133° |
| 2026-04-28 11:55 | 43.39650 | 16.46091 | 36068 ft | 486 kts | 133° |
| 2026-04-28 11:55 | 43.35158 | 16.53045 | 36076 ft | 486 kts | 133° |
| 2026-04-28 11:56 | 43.29929 | 16.61116 | 36076 ft | 486 kts | 133° |
| 2026-04-28 11:56 | 43.26155 | 16.66925 | 36073 ft | 486 kts | 133° |
| 2026-04-28 11:57 | 43.21686 | 16.73790 | 36085 ft | 485 kts | 133° |
| 2026-04-28 11:57 | 43.17182 | 16.80692 | 36067 ft | 485 kts | 133° |
| 2026-04-28 11:58 | 43.12675 | 16.87581 | 36073 ft | 485 kts | 133° |
| 2026-04-28 11:58 | 43.08174 | 16.94447 | 36081 ft | 484 kts | 133° |
| 2026-04-28 11:59 | 43.03671 | 17.01299 | 36088 ft | 484 kts | 133° |
| 2026-04-28 11:59 | 42.99165 | 17.08138 | 36085 ft | 484 kts | 133° |
| 2026-04-28 12:00 | 42.94679 | 17.14931 | 36079 ft | 484 kts | 133° |
| 2026-04-28 12:00 | 42.90165 | 17.21750 | 36083 ft | 484 kts | 133° |
| 2026-04-28 12:01 | 42.85647 | 17.28560 | 36088 ft | 484 kts | 133° |
| 2026-04-28 12:01 | 42.81130 | 17.35351 | 36095 ft | 484 kts | 133° |
| 2026-04-28 12:02 | 42.76603 | 17.42142 | 36090 ft | 484 kts | 133° |
| 2026-04-28 12:02 | 42.72072 | 17.48923 | 36088 ft | 484 kts | 133° |
| 2026-04-28 12:03 | 42.67534 | 17.55699 | 36089 ft | 484 kts | 133° |
| 2026-04-28 12:03 | 42.63026 | 17.62415 | 36092 ft | 484 kts | 133° |
| 2026-04-28 12:04 | 42.58486 | 17.69162 | 36086 ft | 484 kts | 133° |
| 2026-04-28 12:04 | 42.53935 | 17.75910 | 36092 ft | 484 kts | 133° |
| 2026-04-28 12:05 | 42.49400 | 17.82617 | 36094 ft | 483 kts | 133° |
| 2026-04-28 12:05 | 42.44847 | 17.89337 | 36091 ft | 483 kts | 133° |
| 2026-04-28 12:06 | 42.40295 | 17.96040 | 36090 ft | 483 kts | 134° |
| 2026-04-28 12:06 | 42.35745 | 18.02725 | 36102 ft | 483 kts | 134° |
| 2026-04-28 12:07 | 42.31215 | 18.09364 | 36097 ft | 483 kts | 134° |
| 2026-04-28 12:07 | 42.26652 | 18.16038 | 36089 ft | 483 kts | 134° |
| 2026-04-28 12:08 | 42.22087 | 18.22697 | 36097 ft | 483 kts | 134° |
| 2026-04-28 12:08 | 42.17545 | 18.29310 | 36094 ft | 483 kts | 134° |
| 2026-04-28 12:09 | 42.12976 | 18.35948 | 36079 ft | 483 kts | 134° |
| 2026-04-28 12:09 | 42.08399 | 18.42581 | 36094 ft | 482 kts | 134° |
| 2026-04-28 12:10 | 42.03849 | 18.49162 | 36084 ft | 482 kts | 134° |
| 2026-04-28 12:10 | 41.99030 | 18.55431 | 36096 ft | 480 kts | 143° |
| 2026-04-28 12:11 | 41.93708 | 18.60876 | 36085 ft | 480 kts | 144° |
| 2026-04-28 12:11 | 41.88405 | 18.66234 | 36078 ft | 480 kts | 144° |
| 2026-04-28 12:12 | 41.83098 | 18.71683 | 36082 ft | 479 kts | 143° |
| 2026-04-28 12:12 | 41.77816 | 18.77144 | 36086 ft | 479 kts | 143° |
| 2026-04-28 12:13 | 41.72532 | 18.82599 | 36088 ft | 479 kts | 143° |
| 2026-04-28 12:13 | 41.67247 | 18.88041 | 36084 ft | 479 kts | 143° |
| 2026-04-28 12:14 | 41.61956 | 18.93474 | 36084 ft | 479 kts | 143° |
| 2026-04-28 12:14 | 41.56672 | 18.98889 | 36083 ft | 478 kts | 143° |
| 2026-04-28 12:15 | 41.51392 | 19.04291 | 36086 ft | 478 kts | 143° |
| 2026-04-28 12:15 | 41.46141 | 19.09650 | 36088 ft | 478 kts | 143° |
| 2026-04-28 12:16 | 41.40954 | 19.15196 | 36090 ft | 478 kts | 141° |
| 2026-04-28 12:16 | 41.35865 | 19.20906 | 36088 ft | 478 kts | 140° |
| 2026-04-28 12:17 | 41.30767 | 19.26607 | 36088 ft | 478 kts | 141° |
| 2026-04-28 12:17 | 41.25689 | 19.32225 | 36090 ft | 477 kts | 141° |
| 2026-04-28 12:18 | 41.20568 | 19.37857 | 36087 ft | 477 kts | 141° |
| 2026-04-28 12:18 | 41.15445 | 19.43476 | 36088 ft | 477 kts | 141° |
| 2026-04-28 12:19 | 41.10323 | 19.49083 | 36089 ft | 477 kts | 141° |
| 2026-04-28 12:19 | 41.05193 | 19.54688 | 36081 ft | 478 kts | 141° |
| 2026-04-28 12:20 | 41.00090 | 19.60254 | 36078 ft | 477 kts | 141° |
| 2026-04-28 12:20 | 40.94952 | 19.65846 | 36077 ft | 477 kts | 141° |
| 2026-04-28 12:21 | 40.89808 | 19.71432 | 36070 ft | 478 kts | 141° |
| 2026-04-28 12:21 | 40.84686 | 19.76984 | 36068 ft | 477 kts | 141° |
| 2026-04-28 12:22 | 40.79560 | 19.82528 | 36076 ft | 477 kts | 141° |
| 2026-04-28 12:22 | 40.74390 | 19.88108 | 36071 ft | 478 kts | 141° |
| 2026-04-28 12:23 | 40.69267 | 19.93626 | 36060 ft | 478 kts | 141° |
| 2026-04-28 12:23 | 40.64109 | 19.99170 | 36060 ft | 478 kts | 141° |
| 2026-04-28 12:24 | 40.58941 | 20.04713 | 36061 ft | 478 kts | 141° |
| 2026-04-28 12:24 | 40.53819 | 20.10197 | 36066 ft | 478 kts | 141° |
| 2026-04-28 12:25 | 40.48657 | 20.15712 | 36070 ft | 478 kts | 141° |
| 2026-04-28 12:25 | 40.43494 | 20.21216 | 36058 ft | 478 kts | 141° |
| 2026-04-28 12:26 | 40.38322 | 20.26719 | 36065 ft | 478 kts | 141° |
| 2026-04-28 12:26 | 40.33195 | 20.32164 | 36055 ft | 477 kts | 141° |
| 2026-04-28 12:27 | 40.28032 | 20.37635 | 36068 ft | 477 kts | 141° |
| 2026-04-28 12:27 | 40.22870 | 20.43094 | 36056 ft | 477 kts | 141° |
| 2026-04-28 12:28 | 40.17701 | 20.48550 | 36074 ft | 476 kts | 141° |
| 2026-04-28 12:28 | 40.12565 | 20.53963 | 36065 ft | 477 kts | 141° |
| 2026-04-28 12:29 | 40.04693 | 20.61879 | 36075 ft | 476 kts | 147° |
| 2026-04-28 12:30 | 39.99077 | 20.66481 | 36073 ft | 476 kts | 149° |
| 2026-04-28 12:30 | 39.93463 | 20.70971 | 36074 ft | 476 kts | 149° |
| 2026-04-28 12:31 | 39.87835 | 20.75537 | 36073 ft | 477 kts | 149° |
| 2026-04-28 12:31 | 39.82211 | 20.80144 | 36078 ft | 476 kts | 148° |
| 2026-04-28 12:32 | 39.76595 | 20.84750 | 36077 ft | 477 kts | 148° |
| 2026-04-28 12:32 | 39.70990 | 20.89336 | 36082 ft | 478 kts | 148° |
| 2026-04-28 12:32 | 39.68156 | 20.91651 | 36183 ft | 479 kts | 148° |
| 2026-04-28 12:33 | 39.65351 | 20.93939 | 36409 ft | 478 kts | 149° |
| 2026-04-28 12:33 | 39.62511 | 20.96180 | 36660 ft | 477 kts | 152° |
| 2026-04-28 12:33 | 39.59599 | 20.98238 | 36858 ft | 476 kts | 154° |
| 2026-04-28 12:33 | 39.56657 | 21.00194 | 37049 ft | 474 kts | 155° |
| 2026-04-28 12:34 | 39.53739 | 21.02090 | 37061 ft | 476 kts | 155° |
| 2026-04-28 12:34 | 39.47817 | 21.05950 | 37079 ft | 477 kts | 154° |
| 2026-04-28 12:35 | 39.41886 | 21.09883 | 37085 ft | 478 kts | 154° |
| 2026-04-28 12:35 | 39.36009 | 21.13816 | 37071 ft | 479 kts | 154° |
| 2026-04-28 12:36 | 39.30088 | 21.17780 | 37090 ft | 479 kts | 154° |
| 2026-04-28 12:36 | 39.24159 | 21.21741 | 37089 ft | 480 kts | 154° |
| 2026-04-28 12:37 | 39.18217 | 21.25700 | 37078 ft | 480 kts | 154° |
| 2026-04-28 12:37 | 39.12265 | 21.29658 | 37082 ft | 481 kts | 154° |
| 2026-04-28 12:38 | 39.06358 | 21.33578 | 37082 ft | 480 kts | 154° |
| 2026-04-28 12:38 | 39.00419 | 21.37512 | 37083 ft | 480 kts | 154° |
| 2026-04-28 12:39 | 38.94483 | 21.41436 | 37079 ft | 479 kts | 154° |
| 2026-04-28 12:39 | 38.88554 | 21.45348 | 37078 ft | 478 kts | 154° |
| 2026-04-28 12:40 | 38.82631 | 21.49250 | 37073 ft | 479 kts | 154° |
| 2026-04-28 12:40 | 38.76687 | 21.53157 | 37084 ft | 479 kts | 154° |
| 2026-04-28 12:41 | 38.70766 | 21.57041 | 37081 ft | 480 kts | 154° |
| 2026-04-28 12:41 | 38.64812 | 21.60941 | 37070 ft | 480 kts | 154° |
| 2026-04-28 12:42 | 38.58875 | 21.64821 | 37075 ft | 479 kts | 154° |
| 2026-04-28 12:42 | 38.53918 | 21.68056 | 37080 ft | 480 kts | 154° |
| 2026-04-28 12:43 | 38.46998 | 21.72563 | 37074 ft | 480 kts | 154° |
| 2026-04-28 12:43 | 38.41041 | 21.76436 | 37075 ft | 480 kts | 155° |
| 2026-04-28 12:44 | 38.35081 | 21.80303 | 37077 ft | 481 kts | 155° |
| 2026-04-28 12:44 | 38.30084 | 21.83539 | 37085 ft | 481 kts | 155° |
| 2026-04-28 12:45 | 38.24150 | 21.87376 | 37081 ft | 482 kts | 155° |
| 2026-04-28 12:45 | 38.18173 | 21.91235 | 37082 ft | 481 kts | 155° |
| 2026-04-28 12:46 | 38.12193 | 21.95086 | 37077 ft | 482 kts | 155° |
| 2026-04-28 12:46 | 38.06209 | 21.98934 | 37087 ft | 482 kts | 155° |
| 2026-04-28 12:47 | 38.00212 | 22.02783 | 37080 ft | 483 kts | 155° |
| 2026-04-28 12:47 | 37.94240 | 22.06609 | 37093 ft | 484 kts | 155° |
| 2026-04-28 12:48 | 37.88225 | 22.10455 | 37083 ft | 485 kts | 155° |
| 2026-04-28 12:48 | 37.82199 | 22.14301 | 37095 ft | 486 kts | 155° |
| 2026-04-28 12:49 | 37.76157 | 22.18152 | 37090 ft | 486 kts | 155° |
| 2026-04-28 12:49 | 37.70106 | 22.21999 | 37097 ft | 487 kts | 155° |
| 2026-04-28 12:50 | 37.64044 | 22.25848 | 37087 ft | 487 kts | 155° |
| 2026-04-28 12:50 | 37.57989 | 22.29685 | 37097 ft | 486 kts | 155° |
| 2026-04-28 12:51 | 37.51977 | 22.33487 | 37101 ft | 486 kts | 155° |
| 2026-04-28 12:51 | 37.45935 | 22.37302 | 37083 ft | 485 kts | 155° |
| 2026-04-28 12:52 | 37.39903 | 22.41103 | 37094 ft | 484 kts | 155° |
| 2026-04-28 12:52 | 37.33873 | 22.44896 | 37094 ft | 484 kts | 156° |
| 2026-04-28 12:53 | 37.27852 | 22.48677 | 37081 ft | 484 kts | 156° |
| 2026-04-28 12:53 | 37.21815 | 22.52460 | 37091 ft | 484 kts | 156° |
| 2026-04-28 12:54 | 37.15764 | 22.56246 | 37091 ft | 485 kts | 155° |
| 2026-04-28 12:54 | 37.09771 | 22.59989 | 37082 ft | 485 kts | 156° |
| 2026-04-28 12:55 | 37.03721 | 22.63760 | 37089 ft | 485 kts | 156° |
| 2026-04-28 12:55 | 36.97666 | 22.67528 | 37096 ft | 486 kts | 156° |
| 2026-04-28 12:56 | 36.91596 | 22.71298 | 37093 ft | 487 kts | 156° |
| 2026-04-28 12:56 | 36.85508 | 22.75074 | 37073 ft | 489 kts | 156° |
| 2026-04-28 12:57 | 36.79406 | 22.78851 | 37100 ft | 489 kts | 156° |
| 2026-04-28 12:57 | 36.73294 | 22.82626 | 37091 ft | 491 kts | 156° |
| 2026-04-28 12:58 | 36.67208 | 22.86380 | 37091 ft | 492 kts | 156° |
| 2026-04-28 12:58 | 36.61059 | 22.90166 | 37074 ft | 493 kts | 156° |
| 2026-04-28 12:59 | 36.54903 | 22.93950 | 37085 ft | 492 kts | 156° |
| 2026-04-28 12:59 | 36.48755 | 22.97721 | 37096 ft | 492 kts | 156° |
| 2026-04-28 13:00 | 36.42643 | 23.01464 | 37082 ft | 493 kts | 156° |
| 2026-04-28 13:00 | 36.36489 | 23.05226 | 37092 ft | 492 kts | 156° |
| 2026-04-28 13:01 | 36.30324 | 23.08988 | 37085 ft | 492 kts | 156° |
| 2026-04-28 13:01 | 36.24210 | 23.12712 | 37094 ft | 492 kts | 157° |
| 2026-04-28 13:02 | 36.18060 | 23.16451 | 37089 ft | 492 kts | 157° |
| 2026-04-28 13:02 | 36.11914 | 23.20181 | 37091 ft | 492 kts | 157° |
| 2026-04-28 13:03 | 36.05802 | 23.23885 | 37087 ft | 492 kts | 157° |
| 2026-04-28 13:03 | 35.99650 | 23.27606 | 37088 ft | 492 kts | 157° |
| 2026-04-28 13:04 | 35.93501 | 23.31319 | 37084 ft | 492 kts | 157° |
| 2026-04-28 13:04 | 35.87347 | 23.35029 | 37085 ft | 492 kts | 157° |
| 2026-04-28 13:05 | 35.81196 | 23.38730 | 37065 ft | 492 kts | 157° |
| 2026-04-28 13:05 | 35.75043 | 23.42426 | 37080 ft | 492 kts | 157° |
| 2026-04-28 13:06 | 35.68922 | 23.46096 | 37083 ft | 492 kts | 157° |
| 2026-04-28 13:06 | 35.62750 | 23.49790 | 37078 ft | 493 kts | 157° |
| 2026-04-28 13:07 | 35.56572 | 23.53482 | 37057 ft | 493 kts | 157° |
| 2026-04-28 13:07 | 35.50428 | 23.57148 | 37067 ft | 494 kts | 157° |
| 2026-04-28 13:08 | 35.44236 | 23.60835 | 37073 ft | 494 kts | 157° |
| 2026-04-28 13:08 | 35.38040 | 23.64518 | 37052 ft | 494 kts | 157° |
| 2026-04-28 13:09 | 35.31847 | 23.68194 | 37053 ft | 494 kts | 158° |
| 2026-04-28 13:09 | 35.25699 | 23.71837 | 37040 ft | 494 kts | 158° |
| 2026-04-28 13:10 | 35.19518 | 23.75492 | 37045 ft | 494 kts | 158° |
| 2026-04-28 13:10 | 35.13316 | 23.79154 | 37051 ft | 495 kts | 158° |
| 2026-04-28 13:11 | 35.07095 | 23.82821 | 37041 ft | 496 kts | 158° |
| 2026-04-28 13:11 | 35.00878 | 23.86479 | 37020 ft | 496 kts | 158° |
| 2026-04-28 13:12 | 34.94655 | 23.90135 | 37026 ft | 496 kts | 158° |
| 2026-04-28 13:12 | 34.88463 | 23.93766 | 37036 ft | 497 kts | 158° |
| 2026-04-28 13:13 | 34.82226 | 23.97418 | 37039 ft | 497 kts | 158° |
| 2026-04-28 13:13 | 34.75976 | 24.01071 | 37020 ft | 498 kts | 158° |
| 2026-04-28 13:14 | 34.69724 | 24.04720 | 37033 ft | 498 kts | 158° |
| 2026-04-28 13:14 | 34.63490 | 24.08351 | 37031 ft | 498 kts | 158° |
| 2026-04-28 13:15 | 34.57224 | 24.11995 | 37036 ft | 499 kts | 158° |
| 2026-04-28 13:15 | 34.50953 | 24.15636 | 37033 ft | 499 kts | 158° |
| 2026-04-28 13:16 | 34.44718 | 24.19250 | 37040 ft | 499 kts | 159° |
| 2026-04-28 13:16 | 34.38440 | 24.22883 | 37036 ft | 499 kts | 159° |
| 2026-04-28 13:17 | 34.32167 | 24.26507 | 37035 ft | 500 kts | 159° |
| 2026-04-28 13:17 | 34.25911 | 24.30115 | 37036 ft | 500 kts | 159° |
| 2026-04-28 13:18 | 34.19604 | 24.33747 | 37027 ft | 500 kts | 159° |
| 2026-04-28 13:18 | 34.13338 | 24.37349 | 37031 ft | 501 kts | 159° |
| 2026-04-28 13:19 | 34.07030 | 24.40971 | 37044 ft | 502 kts | 159° |
| 2026-04-28 13:19 | 34.00775 | 24.44677 | 37025 ft | 506 kts | 153° |
| 2026-04-28 13:19 | 33.97855 | 24.47084 | 37028 ft | 511 kts | 142° |
| 2026-04-28 13:20 | 33.95183 | 24.49915 | 37015 ft | 512 kts | 141° |
| 2026-04-28 13:20 | 33.89903 | 24.55730 | 37031 ft | 513 kts | 140° |
| 2026-04-28 13:21 | 33.84613 | 24.61524 | 37037 ft | 514 kts | 141° |
| 2026-04-28 13:21 | 33.79313 | 24.67240 | 37032 ft | 515 kts | 141° |
| 2026-04-28 13:22 | 33.73951 | 24.72976 | 37032 ft | 516 kts | 141° |
| 2026-04-28 13:22 | 33.68576 | 24.78712 | 37030 ft | 516 kts | 141° |
| 2026-04-28 13:23 | 33.63203 | 24.84441 | 37012 ft | 516 kts | 142° |
| 2026-04-28 13:23 | 33.57826 | 24.90167 | 37030 ft | 516 kts | 142° |
| 2026-04-28 13:24 | 33.52456 | 24.95875 | 37032 ft | 516 kts | 142° |
| 2026-04-28 13:24 | 33.47105 | 25.01554 | 37041 ft | 516 kts | 142° |
| 2026-04-28 13:25 | 33.41727 | 25.07252 | 37033 ft | 516 kts | 142° |
| 2026-04-28 13:25 | 33.36344 | 25.12944 | 37032 ft | 516 kts | 142° |
| 2026-04-28 13:26 | 33.30954 | 25.18635 | 37032 ft | 515 kts | 142° |
| 2026-04-28 13:26 | 33.25576 | 25.24304 | 37032 ft | 515 kts | 142° |
| 2026-04-28 13:27 | 33.20229 | 25.29930 | 37035 ft | 515 kts | 142° |
| 2026-04-28 13:27 | 33.14856 | 25.35573 | 37044 ft | 514 kts | 142° |
| 2026-04-28 13:28 | 33.09482 | 25.41209 | 37034 ft | 514 kts | 142° |
| 2026-04-28 13:28 | 33.04102 | 25.46840 | 37037 ft | 513 kts | 142° |
| 2026-04-28 13:29 | 32.98729 | 25.52455 | 37029 ft | 513 kts | 142° |
| 2026-04-28 13:29 | 32.93386 | 25.58029 | 37034 ft | 513 kts | 142° |
| 2026-04-28 13:30 | 32.88005 | 25.63634 | 37036 ft | 513 kts | 142° |
| 2026-04-28 13:30 | 32.82619 | 25.69234 | 37046 ft | 514 kts | 143° |
| 2026-04-28 13:31 | 32.74573 | 25.77582 | 37045 ft | 514 kts | 143° |
| 2026-04-28 13:31 | 32.69170 | 25.83176 | 37023 ft | 515 kts | 143° |
| 2026-04-28 13:32 | 32.63787 | 25.88742 | 37042 ft | 515 kts | 143° |
| 2026-04-28 13:32 | 32.58376 | 25.94326 | 37049 ft | 515 kts | 143° |
| 2026-04-28 13:33 | 32.52962 | 25.99903 | 37045 ft | 516 kts | 143° |
| 2026-04-28 13:33 | 32.47532 | 26.05489 | 37043 ft | 516 kts | 143° |
| 2026-04-28 13:34 | 32.43020 | 26.10122 | 37044 ft | 516 kts | 143° |
| 2026-04-28 13:34 | 32.37588 | 26.15693 | 37022 ft | 516 kts | 143° |
| 2026-04-28 13:35 | 32.32156 | 26.21255 | 37039 ft | 516 kts | 143° |
| 2026-04-28 13:35 | 32.26761 | 26.26769 | 37043 ft | 515 kts | 143° |
| 2026-04-28 13:36 | 32.21333 | 26.32308 | 37046 ft | 515 kts | 144° |
| 2026-04-28 13:36 | 32.15891 | 26.37852 | 37045 ft | 515 kts | 144° |
| 2026-04-28 13:37 | 32.10470 | 26.43366 | 37046 ft | 514 kts | 144° |
| 2026-04-28 13:37 | 32.05079 | 26.48840 | 37028 ft | 514 kts | 144° |
| 2026-04-28 13:38 | 31.99658 | 26.54336 | 37042 ft | 514 kts | 144° |
| 2026-04-28 13:38 | 31.94235 | 26.59825 | 37051 ft | 514 kts | 144° |
| 2026-04-28 13:39 | 31.88801 | 26.65315 | 37043 ft | 514 kts | 144° |
| 2026-04-28 13:39 | 31.83367 | 26.70798 | 37048 ft | 514 kts | 144° |
| 2026-04-28 13:40 | 31.78015 | 26.76189 | 37057 ft | 515 kts | 144° |
| 2026-04-28 13:40 | 31.72557 | 26.81678 | 37046 ft | 515 kts | 144° |
| 2026-04-28 13:41 | 31.67106 | 26.87151 | 37051 ft | 516 kts | 145° |
| 2026-04-28 13:41 | 31.61643 | 26.92628 | 37065 ft | 516 kts | 145° |
| 2026-04-28 13:42 | 31.56201 | 26.98075 | 37061 ft | 517 kts | 145° |
| 2026-04-28 13:42 | 31.50713 | 27.03559 | 37063 ft | 518 kts | 145° |
| 2026-04-28 13:43 | 31.45217 | 27.09044 | 37060 ft | 519 kts | 145° |
| 2026-04-28 13:43 | 31.39717 | 27.14525 | 37054 ft | 519 kts | 145° |
| 2026-04-28 13:44 | 31.34241 | 27.19975 | 37054 ft | 520 kts | 144° |
| 2026-04-28 13:44 | 31.29381 | 27.26357 | 37051 ft | 531 kts | 128° |
| 2026-04-28 13:45 | 31.25322 | 27.33580 | 37050 ft | 532 kts | 126° |
| 2026-04-28 13:45 | 31.21245 | 27.40796 | 37046 ft | 531 kts | 127° |
| 2026-04-28 13:46 | 31.17107 | 27.47930 | 37052 ft | 531 kts | 128° |
| 2026-04-28 13:46 | 31.12954 | 27.55060 | 37049 ft | 530 kts | 128° |
| 2026-04-28 13:47 | 31.08761 | 27.62132 | 37044 ft | 529 kts | 129° |
| 2026-04-28 13:47 | 31.04566 | 27.69125 | 37006 ft | 529 kts | 129° |
| 2026-04-28 13:48 | 31.00355 | 27.76143 | 37034 ft | 528 kts | 129° |
| 2026-04-28 13:48 | 30.96141 | 27.83170 | 37047 ft | 529 kts | 129° |
| 2026-04-28 13:49 | 30.91920 | 27.90205 | 37036 ft | 529 kts | 129° |
| 2026-04-28 13:49 | 30.87693 | 27.97235 | 37037 ft | 530 kts | 129° |
| 2026-04-28 13:50 | 30.83452 | 28.04277 | 37038 ft | 531 kts | 129° |
| 2026-04-28 13:50 | 30.79223 | 28.11286 | 37021 ft | 532 kts | 129° |
| 2026-04-28 13:51 | 30.74962 | 28.18334 | 37041 ft | 533 kts | 129° |
| 2026-04-28 13:51 | 30.70685 | 28.25397 | 37029 ft | 533 kts | 129° |
| 2026-04-28 13:52 | 30.66437 | 28.32400 | 37019 ft | 534 kts | 129° |
| 2026-04-28 13:52 | 30.62156 | 28.39445 | 37020 ft | 533 kts | 130° |
| 2026-04-28 13:53 | 30.57858 | 28.46505 | 37015 ft | 534 kts | 130° |
| 2026-04-28 13:53 | 30.53580 | 28.53519 | 37010 ft | 534 kts | 130° |
| 2026-04-28 13:54 | 30.49289 | 28.60544 | 37004 ft | 535 kts | 130° |
| 2026-04-28 13:54 | 30.44982 | 28.67582 | 36990 ft | 535 kts | 130° |
| 2026-04-28 13:55 | 30.40674 | 28.74609 | 36995 ft | 535 kts | 130° |
| 2026-04-28 13:55 | 30.36350 | 28.81649 | 36998 ft | 535 kts | 130° |
| 2026-04-28 13:56 | 30.32025 | 28.88680 | 36987 ft | 536 kts | 130° |
| 2026-04-28 13:56 | 30.27725 | 28.95658 | 36997 ft | 536 kts | 130° |
| 2026-04-28 13:57 | 30.23396 | 29.02673 | 36978 ft | 536 kts | 130° |
| 2026-04-28 13:57 | 30.19064 | 29.09679 | 36996 ft | 535 kts | 130° |
| 2026-04-28 13:58 | 30.14722 | 29.16680 | 37000 ft | 535 kts | 130° |
| 2026-04-28 13:58 | 30.10392 | 29.23693 | 37004 ft | 536 kts | 130° |
| 2026-04-28 13:59 | 30.06149 | 29.30735 | 37009 ft | 536 kts | 129° |
| 2026-04-28 13:59 | 30.01895 | 29.37821 | 37007 ft | 536 kts | 129° |
| 2026-04-28 14:00 | 29.97626 | 29.44895 | 37010 ft | 536 kts | 129° |
| 2026-04-28 14:00 | 29.93346 | 29.51958 | 37010 ft | 536 kts | 130° |
| 2026-04-28 14:01 | 29.89095 | 29.58958 | 37008 ft | 536 kts | 130° |
| 2026-04-28 14:01 | 29.84812 | 29.66000 | 37009 ft | 536 kts | 130° |
| 2026-04-28 14:02 | 29.80528 | 29.73031 | 37011 ft | 536 kts | 130° |
| 2026-04-28 14:02 | 29.76245 | 29.80051 | 37015 ft | 535 kts | 130° |
| 2026-04-28 14:03 | 29.71983 | 29.87022 | 37013 ft | 535 kts | 130° |
| 2026-04-28 14:03 | 29.67690 | 29.94033 | 37014 ft | 535 kts | 130° |
| 2026-04-28 14:04 | 29.63405 | 30.01020 | 37012 ft | 534 kts | 130° |
| 2026-04-28 14:04 | 29.59109 | 30.08011 | 37015 ft | 534 kts | 130° |
| 2026-04-28 14:05 | 29.54850 | 30.14933 | 37010 ft | 534 kts | 130° |
| 2026-04-28 14:05 | 29.50556 | 30.21898 | 37013 ft | 533 kts | 130° |
| 2026-04-28 14:06 | 29.46262 | 30.28852 | 37019 ft | 533 kts | 130° |
| 2026-04-28 14:06 | 29.41995 | 30.35753 | 37015 ft | 533 kts | 130° |
| 2026-04-28 14:07 | 29.37437 | 30.42412 | 37036 ft | 524 kts | 140° |
| 2026-04-28 14:07 | 29.32351 | 30.48399 | 37018 ft | 524 kts | 141° |
| 2026-04-28 14:08 | 29.27251 | 30.54293 | 37021 ft | 525 kts | 141° |
| 2026-04-28 14:08 | 29.22141 | 30.60302 | 37025 ft | 527 kts | 140° |
| 2026-04-28 14:09 | 29.17036 | 30.66366 | 37025 ft | 529 kts | 140° |
| 2026-04-28 14:09 | 29.11927 | 30.72435 | 37023 ft | 530 kts | 140° |
| 2026-04-28 14:10 | 29.06791 | 30.78517 | 37027 ft | 531 kts | 140° |
| 2026-04-28 14:10 | 29.01653 | 30.84591 | 37025 ft | 531 kts | 141° |
| 2026-04-28 14:11 | 28.96530 | 30.90635 | 37029 ft | 531 kts | 141° |
| 2026-04-28 14:11 | 28.91389 | 30.96692 | 37016 ft | 531 kts | 141° |
| 2026-04-28 14:12 | 28.86237 | 31.02753 | 37028 ft | 531 kts | 141° |
| 2026-04-28 14:12 | 28.81120 | 31.08765 | 37029 ft | 531 kts | 141° |
| 2026-04-28 14:13 | 28.75953 | 31.14826 | 37031 ft | 531 kts | 141° |
| 2026-04-28 14:13 | 28.70820 | 31.20838 | 37024 ft | 530 kts | 141° |
| 2026-04-28 14:14 | 28.65754 | 31.26976 | 37006 ft | 531 kts | 139° |
| 2026-04-28 14:14 | 28.60868 | 31.33216 | 37031 ft | 531 kts | 138° |
| 2026-04-28 14:15 | 28.55954 | 31.39485 | 37040 ft | 530 kts | 139° |
| 2026-04-28 14:15 | 28.51020 | 31.45706 | 37057 ft | 530 kts | 139° |
| 2026-04-28 14:16 | 28.46043 | 31.51946 | 37046 ft | 531 kts | 139° |
| 2026-04-28 14:16 | 28.41098 | 31.58136 | 37049 ft | 531 kts | 139° |
| 2026-04-28 14:17 | 28.36129 | 31.64351 | 37038 ft | 532 kts | 139° |
| 2026-04-28 14:17 | 28.31155 | 31.70566 | 36997 ft | 531 kts | 140° |
| 2026-04-28 14:18 | 28.26185 | 31.76767 | 37026 ft | 531 kts | 140° |
| 2026-04-28 14:18 | 28.21203 | 31.82971 | 37023 ft | 532 kts | 140° |
| 2026-04-28 14:19 | 28.16223 | 31.89164 | 37024 ft | 532 kts | 140° |
| 2026-04-28 14:19 | 28.11229 | 31.95368 | 37022 ft | 533 kts | 140° |
| 2026-04-28 14:20 | 28.06240 | 32.01554 | 36625 ft | 539 kts | 140° |
| 2026-04-28 14:20 | 28.03758 | 32.04751 | 36072 ft | 542 kts | 134° |
| 2026-04-28 14:20 | 28.01609 | 32.08291 | 35471 ft | 549 kts | 124° |
| 2026-04-28 14:21 | 27.99769 | 32.12085 | 34847 ft | 551 kts | 122° |
| 2026-04-28 14:21 | 27.97973 | 32.15930 | 34177 ft | 552 kts | 121° |
| 2026-04-28 14:21 | 27.96196 | 32.19763 | 33675 ft | 546 kts | 121° |
| 2026-04-28 14:21 | 27.94431 | 32.23540 | 33298 ft | 539 kts | 121° |
| 2026-04-28 14:22 | 27.92694 | 32.27214 | 32911 ft | 532 kts | 122° |
| 2026-04-28 14:22 | 27.90943 | 32.30871 | 32450 ft | 526 kts | 122° |
| 2026-04-28 14:22 | 27.89182 | 32.34519 | 31795 ft | 525 kts | 121° |
| 2026-04-28 14:22 | 27.87419 | 32.38152 | 31156 ft | 525 kts | 121° |
| 2026-04-28 14:23 | 27.85683 | 32.41723 | 30621 ft | 521 kts | 121° |
| 2026-04-28 14:23 | 27.83940 | 32.45309 | 30124 ft | 517 kts | 121° |
| 2026-04-28 14:23 | 27.82794 | 32.47667 | 29729 ft | 514 kts | 121° |
| 2026-04-28 14:23 | 27.80510 | 32.52368 | 28705 ft | 512 kts | 121° |
| 2026-04-28 14:24 | 27.79367 | 32.54721 | 28175 ft | 511 kts | 121° |
| 2026-04-28 14:24 | 27.77108 | 32.59367 | 27318 ft | 506 kts | 121° |
| 2026-04-28 14:24 | 27.75980 | 32.61684 | 26971 ft | 501 kts | 121° |
| 2026-04-28 14:24 | 27.74316 | 32.65104 | 26498 ft | 494 kts | 121° |
| 2026-04-28 14:25 | 27.72137 | 32.69579 | 25818 ft | 486 kts | 121° |
| 2026-04-28 14:25 | 27.71037 | 32.71834 | 25441 ft | 483 kts | 121° |
| 2026-04-28 14:25 | 27.69437 | 32.75111 | 24901 ft | 479 kts | 121° |
| 2026-04-28 14:25 | 27.67313 | 32.79456 | 24218 ft | 473 kts | 121° |
| 2026-04-28 14:26 | 27.66260 | 32.81610 | 23890 ft | 469 kts | 121° |
| 2026-04-28 14:26 | 27.64174 | 32.85872 | 23201 ft | 463 kts | 121° |
| 2026-04-28 14:26 | 27.63120 | 32.88022 | 22806 ft | 460 kts | 121° |
| 2026-04-28 14:26 | 27.61593 | 32.91139 | 22240 ft | 456 kts | 121° |
| 2026-04-28 14:27 | 27.60064 | 32.94257 | 21663 ft | 452 kts | 121° |
| 2026-04-28 14:27 | 27.58542 | 32.97357 | 21108 ft | 448 kts | 121° |
| 2026-04-28 14:27 | 27.57053 | 33.00389 | 20566 ft | 445 kts | 121° |
| 2026-04-28 14:27 | 27.55556 | 33.03434 | 20027 ft | 441 kts | 121° |
| 2026-04-28 14:28 | 27.54066 | 33.06463 | 19494 ft | 438 kts | 121° |
| 2026-04-28 14:28 | 27.52594 | 33.09455 | 18959 ft | 435 kts | 120° |
| 2026-04-28 14:28 | 27.51143 | 33.12401 | 18464 ft | 432 kts | 120° |
| 2026-04-28 14:28 | 27.49685 | 33.15359 | 17924 ft | 429 kts | 120° |
| 2026-04-28 14:29 | 27.48252 | 33.18266 | 17420 ft | 424 kts | 120° |
| 2026-04-28 14:29 | 27.46816 | 33.21176 | 16886 ft | 420 kts | 120° |
| 2026-04-28 14:29 | 27.45414 | 33.24015 | 16403 ft | 416 kts | 120° |
| 2026-04-28 14:29 | 27.44015 | 33.26847 | 15938 ft | 411 kts | 120° |
| 2026-04-28 14:30 | 27.42625 | 33.29657 | 15458 ft | 407 kts | 120° |
| 2026-04-28 14:30 | 27.41265 | 33.32407 | 14949 ft | 402 kts | 120° |
| 2026-04-28 14:30 | 27.39915 | 33.35135 | 14205 ft | 395 kts | 120° |
| 2026-04-28 14:30 | 27.38586 | 33.37818 | 13377 ft | 393 kts | 120° |
| 2026-04-28 14:31 | 27.37262 | 33.40487 | 12664 ft | 385 kts | 119° |
| 2026-04-28 14:31 | 27.35989 | 33.43054 | 12226 ft | 371 kts | 120° |
| 2026-04-28 14:31 | 27.34745 | 33.45561 | 11765 ft | 359 kts | 120° |
| 2026-04-28 14:31 | 27.33533 | 33.48004 | 11273 ft | 352 kts | 119° |
| 2026-04-28 14:32 | 27.32375 | 33.50336 | 11079 ft | 335 kts | 119° |
| 2026-04-28 14:32 | 27.31260 | 33.52581 | 10879 ft | 319 kts | 119° |
| 2026-04-28 14:32 | 27.30210 | 33.54694 | 10620 ft | 309 kts | 118° |
| 2026-04-28 14:32 | 27.29170 | 33.56785 | 10288 ft | 302 kts | 118° |
| 2026-04-28 14:33 | 27.28148 | 33.58840 | 9926 ft | 298 kts | 118° |
| 2026-04-28 14:33 | 27.27137 | 33.60873 | 9484 ft | 295 kts | 118° |
| 2026-04-28 14:33 | 27.26140 | 33.62876 | 9125 ft | 290 kts | 118° |
| 2026-04-28 14:33 | 27.25177 | 33.64809 | 8846 ft | 285 kts | 118° |
| 2026-04-28 14:34 | 27.23253 | 33.68671 | 8324 ft | 282 kts | 118° |
| 2026-04-28 14:34 | 27.22293 | 33.70598 | 8083 ft | 280 kts | 119° |
| 2026-04-28 14:34 | 27.21342 | 33.72505 | 7841 ft | 279 kts | 119° |
| 2026-04-28 14:35 | 27.20397 | 33.74399 | 7598 ft | 282 kts | 119° |
| 2026-04-28 14:35 | 27.19430 | 33.76335 | 7289 ft | 286 kts | 119° |
| 2026-04-28 14:35 | 27.18438 | 33.78277 | 7013 ft | 286 kts | 125° |
| 2026-04-28 14:35 | 27.17021 | 33.79759 | 6731 ft | 281 kts | 155° |
| 2026-04-28 14:36 | 27.15205 | 33.80539 | 6495 ft | 275 kts | 167° |
| 2026-04-28 14:36 | 27.13373 | 33.81121 | 6233 ft | 275 kts | 168° |
| 2026-04-28 14:36 | 27.11527 | 33.81695 | 5972 ft | 274 kts | 168° |
| 2026-04-28 14:36 | 27.09699 | 33.82271 | 5764 ft | 271 kts | 167° |
| 2026-04-28 14:37 | 27.07886 | 33.82853 | 5515 ft | 271 kts | 167° |
| 2026-04-28 14:37 | 27.06105 | 33.83431 | 5299 ft | 269 kts | 168° |
| 2026-04-28 14:37 | 27.04308 | 33.84018 | 5132 ft | 262 kts | 168° |
| 2026-04-28 14:37 | 27.02604 | 33.84577 | 5056 ft | 249 kts | 168° |
| 2026-04-28 14:38 | 27.01063 | 33.85305 | 4940 ft | 241 kts | 145° |
| 2026-04-28 14:38 | 26.99987 | 33.86695 | 4789 ft | 233 kts | 120° |
| 2026-04-28 14:38 | 26.99482 | 33.88421 | 4453 ft | 231 kts | 94° |
| 2026-04-28 14:38 | 26.99606 | 33.90170 | 4265 ft | 218 kts | 68° |
| 2026-04-28 14:39 | 27.00260 | 33.91603 | 4166 ft | 203 kts | 44° |
| 2026-04-28 14:39 | 27.01308 | 33.92640 | 4086 ft | 201 kts | 25° |
| 2026-04-28 14:39 | 27.02604 | 33.93244 | 3870 ft | 202 kts | 10° |
| 2026-04-28 14:39 | 27.03975 | 33.93404 | 3640 ft | 197 kts | 348° |
| 2026-04-28 14:40 | 27.05080 | 33.92656 | 3407 ft | 186 kts | 300° |
| 2026-04-28 14:40 | 27.05300 | 33.91739 | 3295 ft | 188 kts | 269° |
| 2026-04-28 14:40 | 27.05099 | 33.89797 | 3075 ft | 191 kts | 275° |
| 2026-04-28 14:40 | 27.05119 | 33.88327 | 2847 ft | 185 kts | 277° |
| 2026-04-28 14:41 | 27.05167 | 33.86938 | 2830 ft | 175 kts | 276° |
| 2026-04-28 14:41 | 27.05136 | 33.85550 | 2841 ft | 181 kts | 267° |
| 2026-04-28 14:41 | 27.05190 | 33.84178 | 2793 ft | 172 kts | 300° |
| 2026-04-28 14:41 | 27.06029 | 33.83372 | 2601 ft | 168 kts | 345° |
| 2026-04-28 14:42 | 27.07184 | 33.83271 | 2357 ft | 162 kts | 350° |
| 2026-04-28 14:42 | 27.08265 | 33.82922 | 2235 ft | 157 kts | 344° |
| 2026-04-28 14:42 | 27.09298 | 33.82639 | 2111 ft | 151 kts | 346° |
| 2026-04-28 14:42 | 27.10295 | 33.82349 | 1974 ft | 147 kts | 344° |
| 2026-04-28 14:43 | 27.11302 | 33.82016 | 1603 ft | 151 kts | 343° |
| 2026-04-28 14:43 | 27.12290 | 33.81684 | 1014 ft | 154 kts | 347° |
| 2026-04-28 14:43 | 27.13318 | 33.81436 | 615 ft | 148 kts | 347° |
| 2026-04-28 14:43 | 27.14321 | 33.81144 | 385 ft | 148 kts | 347° |
| 2026-04-28 14:44 | 27.15296 | 33.80843 | 222 ft | 144 kts | 346° |
| 2026-04-28 14:44 | 27.16210 | 33.80579 | 48 ft | 129 kts | 347° |
| 2026-04-28 14:44 | 27.16996 | 33.80352 | 45 ft | 101 kts | 347° |
| 2026-04-28 14:44 | 27.17557 | 33.80188 | 51 ft | 67 kts | 345° |
| 2026-04-28 14:45 | 27.17889 | 33.80091 | 54 ft | 31 kts | 346° |
| 2026-04-28 14:45 | 27.18064 | 33.80042 | 49 ft | 25 kts | 346° |
| 2026-04-28 14:45 | 27.18226 | 33.79995 | 50 ft | 23 kts | 344° |
| 2026-04-28 14:45 | 27.18382 | 33.79949 | 46 ft | 23 kts | 347° |
| 2026-04-28 14:46 | 27.18485 | 33.80050 | 48 ft | 22 kts | 47° |
| 2026-04-28 14:46 | 27.18582 | 33.80165 | 53 ft | 21 kts | 69° |
| 2026-04-28 14:46 | 27.18703 | 33.80206 | 52 ft | 21 kts | 16° |
| 2026-04-28 14:46 | 27.18759 | 33.80292 | 51 ft | 11 kts | 65° |
| 2026-04-28 14:47 | 27.18814 | 33.80331 | 54 ft | 10 kts | 353° |
| 2026-04-28 14:47 | 27.18884 | 33.80322 | 52 ft | 10 kts | 14° |
| 2026-04-28 14:47 | 27.18904 | 33.80360 | 53 ft | 5 kts | 75° |
| 2026-04-28 14:47 | 27.18912 | 33.80392 | 57 ft | 2 kts | 75° |
| 2026-04-28 14:48 | 27.18914 | 33.80399 | 57 ft | 0 kts | 75° |